sensor_id;sensor_type;location;lat;lon;timestamp;P1;P2;P0
72509;PMS5003;60532;56.114;40.350;2023-04-24T00:00:42;16.00;15.00;10.00
72509;PMS5003;60532;56.114;40.350;2023-04-24T00:02:45;18.60;17.00;11.20
72509;PMS5003;60532;56.114;40.350;2023-04-24T00:04:48;18.80;14.60;10.20
72509;PMS5003;60532;56.114;40.350;2023-04-24T00:06:49;16.75;15.00;8.75
72509;PMS5003;60532;56.114;40.350;2023-04-24T00:08:54;17.40;14.60;11.80
72509;PMS5003;60532;56.114;40.350;2023-04-24T00:10:55;16.00;14.00;9.60
72509;PMS5003;60532;56.114;40.350;2023-04-24T00:12:55;15.50;15.00;11.00
72509;PMS5003;60532;56.114;40.350;2023-04-24T00:14:56;17.40;14.40;10.60
72509;PMS5003;60532;56.114;40.350;2023-04-24T00:16:57;3.75;2.50;0.00
72509;PMS5003;60532;56.114;40.350;2023-04-24T00:18:57;19.75;15.25;11.25
72509;PMS5003;60532;56.114;40.350;2023-04-24T00:20:58;16.50;15.50;12.50
72509;PMS5003;60532;56.114;40.350;2023-04-24T00:22:58;16.75;15.75;10.25
72509;PMS5003;60532;56.114;40.350;2023-04-24T00:24:59;14.50;13.25;10.00
72509;PMS5003;60532;56.114;40.350;2023-04-24T00:27:00;15.00;15.00;11.50
72509;PMS5003;60532;56.114;40.350;2023-04-24T00:29:01;15.00;14.80;9.20
72509;PMS5003;60532;56.114;40.350;2023-04-24T00:31:01;16.75;15.50;11.00
72509;PMS5003;60532;56.114;40.350;2023-04-24T00:33:02;16.50;15.00;11.00
72509;PMS5003;60532;56.114;40.350;2023-04-24T00:35:03;12.60;11.00;7.60
72509;PMS5003;60532;56.114;40.350;2023-04-24T00:37:03;17.00;12.00;9.00
72509;PMS5003;60532;56.114;40.350;2023-04-24T00:39:04;16.00;15.25;9.25
72509;PMS5003;60532;56.114;40.350;2023-04-24T00:41:05;14.25;14.00;10.25
72509;PMS5003;60532;56.114;40.350;2023-04-24T00:43:05;18.75;16.00;10.25
72509;PMS5003;60532;56.114;40.350;2023-04-24T00:45:06;15.25;14.75;9.50
72509;PMS5003;60532;56.114;40.350;2023-04-24T00:47:07;16.50;14.00;10.75
72509;PMS5003;60532;56.114;40.350;2023-04-24T00:49:07;19.50;15.00;9.50
72509;PMS5003;60532;56.114;40.350;2023-04-24T00:51:08;13.00;11.50;9.00
72509;PMS5003;60532;56.114;40.350;2023-04-24T00:53:08;16.00;15.00;10.50
72509;PMS5003;60532;56.114;40.350;2023-04-24T00:55:09;19.75;16.50;11.00
72509;PMS5003;60532;56.114;40.350;2023-04-24T00:57:09;16.00;12.00;8.50
72509;PMS5003;60532;56.114;40.350;2023-04-24T00:59:14;12.00;12.00;8.25
72509;PMS5003;60532;56.114;40.350;2023-04-24T01:01:16;17.80;14.00;9.40
72509;PMS5003;60532;56.114;40.350;2023-04-24T01:03:17;16.00;14.40;10.00
72509;PMS5003;60532;56.114;40.350;2023-04-24T01:05:18;12.80;12.80;10.00
72509;PMS5003;60532;56.114;40.350;2023-04-24T01:07:19;13.75;13.75;9.00
72509;PMS5003;60532;56.114;40.350;2023-04-24T01:09:21;10.40;5.80;0.80
72509;PMS5003;60532;56.114;40.350;2023-04-24T01:11:22;14.00;13.80;10.00
72509;PMS5003;60532;56.114;40.350;2023-04-24T01:13:22;12.00;12.00;8.50
72509;PMS5003;60532;56.114;40.350;2023-04-24T01:15:23;16.75;13.00;9.00
72509;PMS5003;60532;56.114;40.350;2023-04-24T01:17:23;13.75;13.75;10.00
72509;PMS5003;60532;56.114;40.350;2023-04-24T01:19:24;13.75;13.75;8.00
72509;PMS5003;60532;56.114;40.350;2023-04-24T01:21:25;8.00;6.50;5.00
72509;PMS5003;60532;56.114;40.350;2023-04-24T01:23:27;16.60;14.00;10.20
72509;PMS5003;60532;56.114;40.350;2023-04-24T01:25:28;14.75;14.75;9.25
72509;PMS5003;60532;56.114;40.350;2023-04-24T01:27:29;12.80;12.80;8.80
72509;PMS5003;60532;56.114;40.350;2023-04-24T01:29:29;16.25;14.00;12.00
72509;PMS5003;60532;56.114;40.350;2023-04-24T01:31:30;16.00;14.50;9.25
72509;PMS5003;60532;56.114;40.350;2023-04-24T01:33:31;14.60;13.00;9.60
72509;PMS5003;60532;56.114;40.350;2023-04-24T01:35:32;15.25;15.00;8.50
72509;PMS5003;60532;56.114;40.350;2023-04-24T01:37:32;13.25;10.25;9.00
72509;PMS5003;60532;56.114;40.350;2023-04-24T01:39:33;15.75;13.00;10.00
72509;PMS5003;60532;56.114;40.350;2023-04-24T01:41:34;15.25;15.25;11.50
72509;PMS5003;60532;56.114;40.350;2023-04-24T01:43:34;12.75;11.00;7.25
72509;PMS5003;60532;56.114;40.350;2023-04-24T01:45:35;23.75;17.50;12.25
72509;PMS5003;60532;56.114;40.350;2023-04-24T01:47:35;12.25;11.25;9.00
72509;PMS5003;60532;56.114;40.350;2023-04-24T01:49:37;14.80;14.00;10.80
72509;PMS5003;60532;56.114;40.350;2023-04-24T01:51:38;13.80;12.60;11.00
72509;PMS5003;60532;56.114;40.350;2023-04-24T01:53:38;13.00;13.00;10.25
72509;PMS5003;60532;56.114;40.350;2023-04-24T01:55:39;14.00;13.25;10.00
72509;PMS5003;60532;56.114;40.350;2023-04-24T01:57:40;13.60;13.60;9.80
72509;PMS5003;60532;56.114;40.350;2023-04-24T01:59:40;17.75;15.25;10.00
72509;PMS5003;60532;56.114;40.350;2023-04-24T02:01:41;15.00;13.50;9.50
72509;PMS5003;60532;56.114;40.350;2023-04-24T02:03:41;11.50;10.75;8.00
72509;PMS5003;60532;56.114;40.350;2023-04-24T02:05:45;15.00;13.25;9.00
72509;PMS5003;60532;56.114;40.350;2023-04-24T02:07:45;13.60;13.60;10.80
72509;PMS5003;60532;56.114;40.350;2023-04-24T02:09:46;12.75;12.75;8.00
72509;PMS5003;60532;56.114;40.350;2023-04-24T02:11:46;14.25;13.25;9.50
72509;PMS5003;60532;56.114;40.350;2023-04-24T02:13:47;16.00;14.75;10.25
72509;PMS5003;60532;56.114;40.350;2023-04-24T02:15:47;15.00;13.00;9.00
72509;PMS5003;60532;56.114;40.350;2023-04-24T02:17:48;14.00;12.50;11.00
72509;PMS5003;60532;56.114;40.350;2023-04-24T02:19:48;17.50;12.75;8.25
72509;PMS5003;60532;56.114;40.350;2023-04-24T02:21:49;15.25;14.50;10.50
72509;PMS5003;60532;56.114;40.350;2023-04-24T02:23:50;18.75;15.75;9.75
72509;PMS5003;60532;56.114;40.350;2023-04-24T02:25:50;11.25;9.50;7.25
72509;PMS5003;60532;56.114;40.350;2023-04-24T02:27:51;13.75;12.25;9.00
72509;PMS5003;60532;56.114;40.350;2023-04-24T02:29:51;13.25;13.25;9.00
72509;PMS5003;60532;56.114;40.350;2023-04-24T02:31:52;17.00;13.00;9.25
72509;PMS5003;60532;56.114;40.350;2023-04-24T02:33:52;16.00;13.75;10.00
72509;PMS5003;60532;56.114;40.350;2023-04-24T02:35:53;14.00;14.00;8.50
72509;PMS5003;60532;56.114;40.350;2023-04-24T02:37:53;14.50;13.25;9.00
72509;PMS5003;60532;56.114;40.350;2023-04-24T02:39:54;12.75;12.75;9.00
72509;PMS5003;60532;56.114;40.350;2023-04-24T02:41:54;15.25;15.25;11.00
72509;PMS5003;60532;56.114;40.350;2023-04-24T02:43:55;10.00;10.00;8.00
72509;PMS5003;60532;56.114;40.350;2023-04-24T02:45:55;15.00;11.25;8.50
72509;PMS5003;60532;56.114;40.350;2023-04-24T02:47:56;16.25;14.75;10.50
72509;PMS5003;60532;56.114;40.350;2023-04-24T02:49:56;12.25;11.25;8.00
72509;PMS5003;60532;56.114;40.350;2023-04-24T02:51:57;14.00;11.00;9.00
72509;PMS5003;60532;56.114;40.350;2023-04-24T02:53:57;15.25;15.25;9.00
72509;PMS5003;60532;56.114;40.350;2023-04-24T02:55:58;16.25;12.50;9.50
72509;PMS5003;60532;56.114;40.350;2023-04-24T02:57:58;15.25;15.25;11.25
72509;PMS5003;60532;56.114;40.350;2023-04-24T02:59:59;16.00;16.00;10.00
72509;PMS5003;60532;56.114;40.350;2023-04-24T03:01:59;14.75;10.00;8.00
72509;PMS5003;60532;56.114;40.350;2023-04-24T03:04:00;16.25;12.75;10.00
72509;PMS5003;60532;56.114;40.350;2023-04-24T03:06:00;14.75;14.75;10.00
72509;PMS5003;60532;56.114;40.350;2023-04-24T03:08:01;15.00;15.00;10.00
72509;PMS5003;60532;56.114;40.350;2023-04-24T03:10:02;15.00;15.00;10.25
72509;PMS5003;60532;56.114;40.350;2023-04-24T03:12:03;16.00;15.60;10.60
72509;PMS5003;60532;56.114;40.350;2023-04-24T03:14:03;14.50;14.50;10.00
72509;PMS5003;60532;56.114;40.350;2023-04-24T03:16:07;16.75;15.50;10.25
72509;PMS5003;60532;56.114;40.350;2023-04-24T03:18:07;13.00;13.00;11.00
72509;PMS5003;60532;56.114;40.350;2023-04-24T03:20:08;16.00;14.00;10.00
72509;PMS5003;60532;56.114;40.350;2023-04-24T03:22:09;14.40;12.80;8.40
72509;PMS5003;60532;56.114;40.350;2023-04-24T03:24:09;10.75;10.25;7.50
72509;PMS5003;60532;56.114;40.350;2023-04-24T03:26:10;14.25;10.75;8.50
72509;PMS5003;60532;56.114;40.350;2023-04-24T03:28:10;11.00;10.75;9.75
72509;PMS5003;60532;56.114;40.350;2023-04-24T03:30:11;14.00;11.50;8.00
72509;PMS5003;60532;56.114;40.350;2023-04-24T03:32:11;17.50;12.25;9.75
72509;PMS5003;60532;56.114;40.350;2023-04-24T03:34:12;13.75;12.00;9.00
72509;PMS5003;60532;56.114;40.350;2023-04-24T03:36:13;16.80;13.80;10.00
72509;PMS5003;60532;56.114;40.350;2023-04-24T03:38:13;12.75;12.25;8.25
72509;PMS5003;60532;56.114;40.350;2023-04-24T03:40:14;13.60;11.20;9.20
72509;PMS5003;60532;56.114;40.350;2023-04-24T03:42:15;16.25;13.00;10.00
72509;PMS5003;60532;56.114;40.350;2023-04-24T03:44:16;16.00;16.00;12.00
72509;PMS5003;60532;56.114;40.350;2023-04-24T03:46:16;22.50;18.50;13.25
72509;PMS5003;60532;56.114;40.350;2023-04-24T03:48:17;16.25;16.25;12.00
72509;PMS5003;60532;56.114;40.350;2023-04-24T03:50:17;18.50;18.00;11.25
72509;PMS5003;60532;56.114;40.350;2023-04-24T03:52:18;20.75;20.75;14.00
72509;PMS5003;60532;56.114;40.350;2023-04-24T03:54:19;17.00;16.50;12.25
72509;PMS5003;60532;56.114;40.350;2023-04-24T03:56:19;16.00;14.80;10.00
72509;PMS5003;60532;56.114;40.350;2023-04-24T03:58:20;16.40;15.00;10.80
72509;PMS5003;60532;56.114;40.350;2023-04-24T04:00:21;11.60;10.20;8.20
72509;PMS5003;60532;56.114;40.350;2023-04-24T04:02:22;15.75;14.00;9.50
72509;PMS5003;60532;56.114;40.350;2023-04-24T04:04:23;16.00;15.50;10.75
72509;PMS5003;60532;56.114;40.350;2023-04-24T04:06:23;14.75;13.00;9.00
72509;PMS5003;60532;56.114;40.350;2023-04-24T04:08:24;20.25;17.00;10.00
72509;PMS5003;60532;56.114;40.350;2023-04-24T04:10:24;10.00;8.25;6.50
72509;PMS5003;60532;56.114;40.350;2023-04-24T04:12:25;11.50;9.75;7.00
72509;PMS5003;60532;56.114;40.350;2023-04-24T04:14:25;15.50;14.25;10.00
72509;PMS5003;60532;56.114;40.350;2023-04-24T04:16:26;16.50;14.75;10.25
72509;PMS5003;60532;56.114;40.350;2023-04-24T04:18:26;12.50;11.75;10.25
72509;PMS5003;60532;56.114;40.350;2023-04-24T04:20:27;17.25;14.50;11.50
72509;PMS5003;60532;56.114;40.350;2023-04-24T04:22:27;20.25;17.25;12.00
72509;PMS5003;60532;56.114;40.350;2023-04-24T04:24:28;19.50;19.25;13.25
72509;PMS5003;60532;56.114;40.350;2023-04-24T04:26:29;15.80;15.80;11.00
72509;PMS5003;60532;56.114;40.350;2023-04-24T04:28:32;15.00;13.75;10.00
72509;PMS5003;60532;56.114;40.350;2023-04-24T04:30:33;16.33;15.00;10.67
72509;PMS5003;60532;56.114;40.350;2023-04-24T04:32:34;11.67;10.67;7.00
72509;PMS5003;60532;56.114;40.350;2023-04-24T04:34:34;12.75;11.00;6.00
72509;PMS5003;60532;56.114;40.350;2023-04-24T04:36:37;14.00;14.00;9.25
72509;PMS5003;60532;56.114;40.350;2023-04-24T04:38:40;16.75;16.75;10.50
72509;PMS5003;60532;56.114;40.350;2023-04-24T04:40:40;17.67;15.00;11.00
72509;PMS5003;60532;56.114;40.350;2023-04-24T04:42:41;17.33;14.33;9.00
72509;PMS5003;60532;56.114;40.350;2023-04-24T04:44:42;17.00;15.00;10.00
72509;PMS5003;60532;56.114;40.350;2023-04-24T04:46:44;14.75;14.75;10.50
72509;PMS5003;60532;56.114;40.350;2023-04-24T04:48:45;13.67;13.67;8.67
72509;PMS5003;60532;56.114;40.350;2023-04-24T04:50:45;16.00;16.00;10.67
72509;PMS5003;60532;56.114;40.350;2023-04-24T04:52:46;15.33;15.00;10.00
72509;PMS5003;60532;56.114;40.350;2023-04-24T04:54:46;17.33;17.00;10.67
72509;PMS5003;60532;56.114;40.350;2023-04-24T04:56:49;19.67;18.67;12.33
72509;PMS5003;60532;56.114;40.350;2023-04-24T04:58:52;16.50;15.50;10.00
72509;PMS5003;60532;56.114;40.350;2023-04-24T05:00:53;15.00;15.00;10.00
72509;PMS5003;60532;56.114;40.350;2023-04-24T05:02:53;16.33;14.67;10.33
72509;PMS5003;60532;56.114;40.350;2023-04-24T05:04:54;14.00;13.33;10.00
72509;PMS5003;60532;56.114;40.350;2023-04-24T05:06:54;15.67;14.33;7.00
72509;PMS5003;60532;56.114;40.350;2023-04-24T05:08:55;17.67;15.67;10.67
72509;PMS5003;60532;56.114;40.350;2023-04-24T05:10:57;13.75;11.50;8.50
72509;PMS5003;60532;56.114;40.350;2023-04-24T05:12:57;19.00;16.00;10.33
72509;PMS5003;60532;56.114;40.350;2023-04-24T05:14:58;15.67;14.67;10.67
72509;PMS5003;60532;56.114;40.350;2023-04-24T05:16:58;17.33;16.00;10.00
72509;PMS5003;60532;56.114;40.350;2023-04-24T05:19:00;16.00;15.25;8.75
72509;PMS5003;60532;56.114;40.350;2023-04-24T05:21:00;13.33;13.33;10.00
72509;PMS5003;60532;56.114;40.350;2023-04-24T05:23:01;13.67;13.67;10.00
72509;PMS5003;60532;56.114;40.350;2023-04-24T05:25:02;17.00;15.00;9.67
72509;PMS5003;60532;56.114;40.350;2023-04-24T05:27:03;19.00;17.75;11.75
72509;PMS5003;60532;56.114;40.350;2023-04-24T05:29:04;13.75;12.50;8.75
72509;PMS5003;60532;56.114;40.350;2023-04-24T05:31:05;15.33;14.00;10.00
72509;PMS5003;60532;56.114;40.350;2023-04-24T05:33:06;15.50;12.50;8.75
72509;PMS5003;60532;56.114;40.350;2023-04-24T05:35:07;11.00;10.33;7.33
72509;PMS5003;60532;56.114;40.350;2023-04-24T05:37:07;14.00;11.67;8.00
72509;PMS5003;60532;56.114;40.350;2023-04-24T05:39:10;13.00;12.75;9.00
72509;PMS5003;60532;56.114;40.350;2023-04-24T05:41:10;15.50;13.50;8.75
72509;PMS5003;60532;56.114;40.350;2023-04-24T05:43:11;9.33;9.33;7.00
72509;PMS5003;60532;56.114;40.350;2023-04-24T05:45:12;12.50;10.00;6.00
72509;PMS5003;60532;56.114;40.350;2023-04-24T05:47:16;10.50;10.00;6.75
72509;PMS5003;60532;56.114;40.350;2023-04-24T05:49:17;13.67;11.00;8.00
72509;PMS5003;60532;56.114;40.350;2023-04-24T05:51:17;12.67;12.67;7.33
72509;PMS5003;60532;56.114;40.350;2023-04-24T05:53:18;11.00;11.00;7.00
72509;PMS5003;60532;56.114;40.350;2023-04-24T05:55:19;13.50;11.50;8.00
72509;PMS5003;60532;56.114;40.350;2023-04-24T05:57:19;14.50;12.25;7.00
72509;PMS5003;60532;56.114;40.350;2023-04-24T05:59:20;11.33;10.67;7.00
72509;PMS5003;60532;56.114;40.350;2023-04-24T06:01:21;9.75;9.75;7.75
72509;PMS5003;60532;56.114;40.350;2023-04-24T06:03:21;10.00;10.00;7.00
72509;PMS5003;60532;56.114;40.350;2023-04-24T06:05:22;10.67;10.67;7.00
72509;PMS5003;60532;56.114;40.350;2023-04-24T06:07:22;10.67;9.67;6.33
72509;PMS5003;60532;56.114;40.350;2023-04-24T06:09:23;11.67;11.67;7.67
72509;PMS5003;60532;56.114;40.350;2023-04-24T06:11:23;11.00;10.67;7.33
72509;PMS5003;60532;56.114;40.350;2023-04-24T06:13:25;10.00;8.00;5.00
72509;PMS5003;60532;56.114;40.350;2023-04-24T06:15:27;14.33;11.33;7.33
72509;PMS5003;60532;56.114;40.350;2023-04-24T06:17:27;11.50;11.50;8.00
72509;PMS5003;60532;56.114;40.350;2023-04-24T06:19:28;11.33;11.33;8.00
72509;PMS5003;60532;56.114;40.350;2023-04-24T06:21:28;13.00;12.00;7.67
72509;PMS5003;60532;56.114;40.350;2023-04-24T06:23:28;11.00;11.00;7.67
72509;PMS5003;60532;56.114;40.350;2023-04-24T06:25:29;11.33;9.33;6.00
72509;PMS5003;60532;56.114;40.350;2023-04-24T06:27:30;9.25;9.25;6.00
72509;PMS5003;60532;56.114;40.350;2023-04-24T06:29:31;10.00;10.00;7.00
72509;PMS5003;60532;56.114;40.350;2023-04-24T06:31:32;11.00;11.00;6.75
72509;PMS5003;60532;56.114;40.350;2023-04-24T06:33:37;12.50;10.00;6.25
72509;PMS5003;60532;56.114;40.350;2023-04-24T06:35:37;5.33;5.33;3.67
72509;PMS5003;60532;56.114;40.350;2023-04-24T06:37:41;9.33;9.33;6.67
72509;PMS5003;60532;56.114;40.350;2023-04-24T06:39:42;12.50;11.75;7.00
72509;PMS5003;60532;56.114;40.350;2023-04-24T06:41:42;11.33;11.00;7.00
72509;PMS5003;60532;56.114;40.350;2023-04-24T06:43:43;11.25;9.00;6.00
72509;PMS5003;60532;56.114;40.350;2023-04-24T06:45:43;10.67;10.33;7.67
72509;PMS5003;60532;56.114;40.350;2023-04-24T06:47:44;8.67;8.00;6.67
72509;PMS5003;60532;56.114;40.350;2023-04-24T06:49:44;12.33;11.67;7.33
72509;PMS5003;60532;56.114;40.350;2023-04-24T06:51:45;10.00;8.00;5.33
72509;PMS5003;60532;56.114;40.350;2023-04-24T06:53:45;6.00;4.67;3.67
72509;PMS5003;60532;56.114;40.350;2023-04-24T06:55:46;11.67;10.33;7.00
72509;PMS5003;60532;56.114;40.350;2023-04-24T06:57:47;8.67;8.67;5.67
72509;PMS5003;60532;56.114;40.350;2023-04-24T06:59:47;8.33;7.67;5.33
72509;PMS5003;60532;56.114;40.350;2023-04-24T07:01:48;10.75;9.50;5.00
72509;PMS5003;60532;56.114;40.350;2023-04-24T07:03:49;10.00;8.25;6.00
72509;PMS5003;60532;56.114;40.350;2023-04-24T07:05:49;9.33;8.00;5.67
72509;PMS5003;60532;56.114;40.350;2023-04-24T07:07:51;7.75;7.75;5.50
72509;PMS5003;60532;56.114;40.350;2023-04-24T07:09:52;5.00;5.00;2.67
72509;PMS5003;60532;56.114;40.350;2023-04-24T07:11:52;9.00;8.00;5.00
72509;PMS5003;60532;56.114;40.350;2023-04-24T07:13:53;11.00;11.00;6.25
72509;PMS5003;60532;56.114;40.350;2023-04-24T07:15:54;8.00;8.00;5.33
72509;PMS5003;60532;56.114;40.350;2023-04-24T07:17:56;8.25;7.50;6.50
72509;PMS5003;60532;56.114;40.350;2023-04-24T07:19:56;7.00;7.00;4.00
72509;PMS5003;60532;56.114;40.350;2023-04-24T07:21:57;9.00;9.00;6.50
72509;PMS5003;60532;56.114;40.350;2023-04-24T07:23:58;11.67;8.67;5.67
72509;PMS5003;60532;56.114;40.350;2023-04-24T07:25:59;7.67;7.00;4.67
72509;PMS5003;60532;56.114;40.350;2023-04-24T07:27:59;9.67;8.00;5.00
72509;PMS5003;60532;56.114;40.350;2023-04-24T07:30:00;10.00;10.00;6.67
72509;PMS5003;60532;56.114;40.350;2023-04-24T07:32:01;9.67;9.67;6.67
72509;PMS5003;60532;56.114;40.350;2023-04-24T07:34:01;9.33;8.67;6.00
72509;PMS5003;60532;56.114;40.350;2023-04-24T07:36:02;8.33;8.00;6.33
72509;PMS5003;60532;56.114;40.350;2023-04-24T07:38:03;10.33;10.33;7.00
72509;PMS5003;60532;56.114;40.350;2023-04-24T07:40:03;7.67;7.67;5.00
72509;PMS5003;60532;56.114;40.350;2023-04-24T07:42:04;8.50;8.50;6.00
72509;PMS5003;60532;56.114;40.350;2023-04-24T07:44:05;11.33;10.00;6.33
72509;PMS5003;60532;56.114;40.350;2023-04-24T07:46:06;4.67;4.67;3.67
72509;PMS5003;60532;56.114;40.350;2023-04-24T07:48:08;9.75;8.00;5.00
72509;PMS5003;60532;56.114;40.350;2023-04-24T07:50:09;8.75;8.75;6.00
72509;PMS5003;60532;56.114;40.350;2023-04-24T07:52:09;7.00;7.00;4.25
72509;PMS5003;60532;56.114;40.350;2023-04-24T07:54:10;10.00;10.00;7.67
72509;PMS5003;60532;56.114;40.350;2023-04-24T07:56:10;11.00;8.33;6.00
72509;PMS5003;60532;56.114;40.350;2023-04-24T07:58:11;11.00;11.00;7.00
72509;PMS5003;60532;56.114;40.350;2023-04-24T08:00:12;9.33;8.00;5.33
72509;PMS5003;60532;56.114;40.350;2023-04-24T08:02:12;10.33;9.33;6.00
72509;PMS5003;60532;56.114;40.350;2023-04-24T08:04:13;9.33;9.00;6.00
72509;PMS5003;60532;56.114;40.350;2023-04-24T08:06:13;10.67;9.33;6.00
72509;PMS5003;60532;56.114;40.350;2023-04-24T08:08:14;11.00;10.00;7.33
72509;PMS5003;60532;56.114;40.350;2023-04-24T08:10:14;8.67;8.67;6.00
72509;PMS5003;60532;56.114;40.350;2023-04-24T08:12:15;10.33;9.00;6.00
72509;PMS5003;60532;56.114;40.350;2023-04-24T08:14:15;14.00;9.00;6.00
72509;PMS5003;60532;56.114;40.350;2023-04-24T08:16:16;8.33;7.00;4.00
72509;PMS5003;60532;56.114;40.350;2023-04-24T08:18:16;10.33;10.33;5.33
72509;PMS5003;60532;56.114;40.350;2023-04-24T08:20:17;6.33;6.33;5.00
72509;PMS5003;60532;56.114;40.350;2023-04-24T08:22:17;7.67;7.67;5.00
72509;PMS5003;60532;56.114;40.350;2023-04-24T08:24:18;9.00;8.00;5.00
72509;PMS5003;60532;56.114;40.350;2023-04-24T08:26:19;8.33;8.33;5.67
72509;PMS5003;60532;56.114;40.350;2023-04-24T08:28:19;5.33;4.00;3.67
72509;PMS5003;60532;56.114;40.350;2023-04-24T08:30:20;7.00;5.50;4.00
72509;PMS5003;60532;56.114;40.350;2023-04-24T08:32:20;6.67;6.67;4.33
72509;PMS5003;60532;56.114;40.350;2023-04-24T08:34:21;6.67;6.67;3.67
72509;PMS5003;60532;56.114;40.350;2023-04-24T08:36:22;8.33;7.00;5.33
72509;PMS5003;60532;56.114;40.350;2023-04-24T08:38:22;7.33;7.33;4.33
72509;PMS5003;60532;56.114;40.350;2023-04-24T08:40:26;10.00;10.00;4.50
72509;PMS5003;60532;56.114;40.350;2023-04-24T08:42:28;9.75;8.75;6.00
72509;PMS5003;60532;56.114;40.350;2023-04-24T08:44:33;9.75;9.75;5.25
72509;PMS5003;60532;56.114;40.350;2023-04-24T08:46:34;8.75;7.00;3.50
72509;PMS5003;60532;56.114;40.350;2023-04-24T08:48:35;5.00;5.00;3.00
72509;PMS5003;60532;56.114;40.350;2023-04-24T08:50:37;8.00;7.25;4.75
72509;PMS5003;60532;56.114;40.350;2023-04-24T08:52:38;9.25;7.50;4.25
72509;PMS5003;60532;56.114;40.350;2023-04-24T08:54:38;10.00;8.67;6.00
72509;PMS5003;60532;56.114;40.350;2023-04-24T08:56:40;9.75;8.75;5.50
72509;PMS5003;60532;56.114;40.350;2023-04-24T08:58:42;7.00;7.00;5.00
72509;PMS5003;60532;56.114;40.350;2023-04-24T09:00:43;8.00;8.00;5.00
72509;PMS5003;60532;56.114;40.350;2023-04-24T09:02:47;9.00;7.75;5.25
72509;PMS5003;60532;56.114;40.350;2023-04-24T09:04:48;8.50;8.50;6.00
72509;PMS5003;60532;56.114;40.350;2023-04-24T09:06:50;8.25;6.75;5.00
72509;PMS5003;60532;56.114;40.350;2023-04-24T09:08:51;5.00;5.00;1.75
72509;PMS5003;60532;56.114;40.350;2023-04-24T09:10:54;8.75;7.75;5.00
72509;PMS5003;60532;56.114;40.350;2023-04-24T09:12:55;7.33;7.33;6.00
72509;PMS5003;60532;56.114;40.350;2023-04-24T09:14:56;7.00;7.00;5.00
72509;PMS5003;60532;56.114;40.350;2023-04-24T09:16:57;9.33;7.67;6.00
72509;PMS5003;60532;56.114;40.350;2023-04-24T09:18:57;7.67;7.33;4.00
72509;PMS5003;60532;56.114;40.350;2023-04-24T09:20:59;8.33;6.67;4.00
72509;PMS5003;60532;56.114;40.350;2023-04-24T09:23:00;8.75;7.75;5.50
72509;PMS5003;60532;56.114;40.350;2023-04-24T09:25:05;7.75;7.75;5.25
72509;PMS5003;60532;56.114;40.350;2023-04-24T09:27:06;8.00;8.00;5.50
72509;PMS5003;60532;56.114;40.350;2023-04-24T09:29:07;7.33;7.33;5.00
72509;PMS5003;60532;56.114;40.350;2023-04-24T09:31:09;10.00;7.25;5.00
72509;PMS5003;60532;56.114;40.350;2023-04-24T09:33:13;9.00;9.00;6.00
72509;PMS5003;60532;56.114;40.350;2023-04-24T09:35:15;9.75;8.25;5.50
72509;PMS5003;60532;56.114;40.350;2023-04-24T09:37:27;7.00;7.00;4.75
72509;PMS5003;60532;56.114;40.350;2023-04-24T09:39:28;7.00;7.00;5.25
72509;PMS5003;60532;56.114;40.350;2023-04-24T09:41:28;9.00;9.00;6.00
72509;PMS5003;60532;56.114;40.350;2023-04-24T09:43:29;9.00;9.00;6.00
72509;PMS5003;60532;56.114;40.350;2023-04-24T09:45:37;9.25;9.00;5.50
72509;PMS5003;60532;56.114;40.350;2023-04-24T09:47:38;8.50;8.50;5.50
72509;PMS5003;60532;56.114;40.350;2023-04-24T09:49:38;10.00;9.00;6.00
72509;PMS5003;60532;56.114;40.350;2023-04-24T09:51:41;8.00;7.00;4.00
72509;PMS5003;60532;56.114;40.350;2023-04-24T09:53:45;9.00;8.67;5.00
72509;PMS5003;60532;56.114;40.350;2023-04-24T09:55:46;1.50;1.50;1.25
72509;PMS5003;60532;56.114;40.350;2023-04-24T09:57:52;8.00;8.00;5.50
72509;PMS5003;60532;56.114;40.350;2023-04-24T09:59:53;10.75;9.25;6.00
72509;PMS5003;60532;56.114;40.350;2023-04-24T10:01:53;10.00;9.67;6.00
72509;PMS5003;60532;56.114;40.350;2023-04-24T10:03:54;11.00;9.00;5.00
72509;PMS5003;60532;56.114;40.350;2023-04-24T10:05:54;10.00;8.00;5.00
72509;PMS5003;60532;56.114;40.350;2023-04-24T10:08:02;9.50;9.50;5.25
72509;PMS5003;60532;56.114;40.350;2023-04-24T10:10:03;9.50;8.00;6.25
72509;PMS5003;60532;56.114;40.350;2023-04-24T10:12:03;8.33;8.33;5.00
72509;PMS5003;60532;56.114;40.350;2023-04-24T10:14:04;7.67;6.67;5.00
72509;PMS5003;60532;56.114;40.350;2023-04-24T10:16:05;7.67;7.67;5.33
72509;PMS5003;60532;56.114;40.350;2023-04-24T10:18:06;10.40;7.60;6.00
72509;PMS5003;60532;56.114;40.350;2023-04-24T10:20:07;9.50;8.25;5.75
72509;PMS5003;60532;56.114;40.350;2023-04-24T10:22:08;7.75;7.75;5.00
72509;PMS5003;60532;56.114;40.350;2023-04-24T10:24:09;10.00;8.25;6.00
72509;PMS5003;60532;56.114;40.350;2023-04-24T10:26:10;9.00;9.00;6.00
72509;PMS5003;60532;56.114;40.350;2023-04-24T10:28:17;7.75;7.75;4.25
72509;PMS5003;60532;56.114;40.350;2023-04-24T10:30:18;8.25;8.25;6.00
72509;PMS5003;60532;56.114;40.350;2023-04-24T10:32:19;8.00;6.75;5.25
72509;PMS5003;60532;56.114;40.350;2023-04-24T10:34:20;9.00;9.00;6.00
72509;PMS5003;60532;56.114;40.350;2023-04-24T10:36:21;6.75;6.75;4.75
72509;PMS5003;60532;56.114;40.350;2023-04-24T10:38:23;10.50;7.75;5.00
72509;PMS5003;60532;56.114;40.350;2023-04-24T10:40:26;8.75;8.00;5.00
72509;PMS5003;60532;56.114;40.350;2023-04-24T10:42:27;9.25;8.00;6.00
72509;PMS5003;60532;56.114;40.350;2023-04-24T10:44:35;7.50;7.00;4.75
72509;PMS5003;60532;56.114;40.350;2023-04-24T10:46:36;8.25;8.25;2.75
72509;PMS5003;60532;56.114;40.350;2023-04-24T10:48:41;9.50;9.50;6.25
72509;PMS5003;60532;56.114;40.350;2023-04-24T10:50:46;8.25;7.50;5.00
72509;PMS5003;60532;56.114;40.350;2023-04-24T10:52:48;8.75;8.75;5.50
72509;PMS5003;60532;56.114;40.350;2023-04-24T10:54:51;8.00;8.00;5.00
72509;PMS5003;60532;56.114;40.350;2023-04-24T10:56:51;8.33;8.33;6.00
72509;PMS5003;60532;56.114;40.350;2023-04-24T10:58:53;11.33;9.00;6.00
72509;PMS5003;60532;56.114;40.350;2023-04-24T11:00:57;9.50;9.25;6.50
72509;PMS5003;60532;56.114;40.350;2023-04-24T11:02:58;10.20;8.80;6.00
72509;PMS5003;60532;56.114;40.350;2023-04-24T11:05:00;10.75;10.50;7.50
72509;PMS5003;60532;56.114;40.350;2023-04-24T11:07:03;8.00;8.00;5.50
72509;PMS5003;60532;56.114;40.350;2023-04-24T11:09:14;10.00;10.00;6.00
72509;PMS5003;60532;56.114;40.350;2023-04-24T11:11:16;8.00;8.00;5.00
72509;PMS5003;60532;56.114;40.350;2023-04-24T11:13:17;9.50;9.50;5.25
72509;PMS5003;60532;56.114;40.350;2023-04-24T11:15:21;8.50;8.50;5.25
72509;PMS5003;60532;56.114;40.350;2023-04-24T11:17:35;9.25;6.00;3.25
72509;PMS5003;60532;56.114;40.350;2023-04-24T11:19:38;11.00;11.00;7.00
72509;PMS5003;60532;56.114;40.350;2023-04-24T11:21:40;8.25;8.00;5.25
72509;PMS5003;60532;56.114;40.350;2023-04-24T11:23:44;9.20;9.20;6.60